microsoftventures.com alexa rank chart, microsoftventures.com alexa rank daily changes

microsoftventures.com alexa rank chart, microsoftventures.com alexa rank daily changes

microsoftventures.com
Actual rank:
463 515

RANK HISTORY

Date Rank Diff
2017/10/21 463 515 -19 983
2017/10/20 483 498 -9 624
2017/10/19 493 122 -9 702
2017/10/18 502 824 -3 116
2017/10/17 505 940 -41 198
2017/10/16 547 138 -71 061
2017/10/14 618 199 -22 560
2017/10/13 640 759 -22 921
2017/10/12 663 680 -30 628
2017/10/11 694 308 -1 603
2017/10/10 695 911 +12 100
2017/10/09 683 811 +18 612
2017/10/08 665 199 +59 514
2017/10/07 605 685 -6 741
2017/10/06 612 426 +4 616
2017/10/05 607 810 +995
2017/10/04 606 815 -20 247
2017/10/03 627 062 +9 065
2017/10/02 617 997 -4 704
2017/10/01 622 701 -20 070
2017/09/30 642 771 +25 300
2017/09/29 617 471 -139 667
2017/09/28 757 138 -3 591
2017/09/27 760 729 +31 252
2017/09/26 729 477 +11 914
2017/09/25 717 563 +23 132
2017/09/24 694 431 -11 108
2017/09/23 705 539 +40 884
2017/09/22 664 655 +24 375
2017/09/20 640 280 -2 325
2017/09/19 642 605 +31 678
2017/09/18 610 927 +7 946
2017/09/17 602 981 +8 268
2017/09/16 594 713 +12 758
2017/09/15 581 955 -5 125
2017/09/14 587 080 -14 252
2017/09/13 601 332 -3 147
2017/09/12 604 479 +3 743
2017/09/11 600 736 +9 372
2017/09/10 591 364 -21 747
2017/09/09 613 111 +3 013
2017/09/08 610 098 -54 496
2017/09/07 664 594 -5 010
2017/09/06 669 604 -23 880
2017/09/05 693 484 -4 630
2017/09/04 698 114 +35 502
2017/09/03 662 612 -6 666
2017/09/02 669 278 +14 401
2017/09/01 654 877 -2 644
2017/08/31 657 521 -1 476
2017/08/30 658 997 -29 376
2017/08/29 688 373 -11 195
2017/08/28 699 568 -2 047
2017/08/27 701 615 -62 667
2017/08/26 764 282 -36 891
2017/08/25 801 173 -41 749
2017/08/24 842 922 -10 334
2017/08/23 853 256 -30 705
2017/08/22 883 961

WIDGET FOR YOUR SITE

DOMAINS WITH THE NEAREST RANK

Domain Rank
guide-evasion.fr 463 510
room7.com 463 511
vodafone.fm 463 512
satori.lv 463 513
mobis.hr 463 514
microsoftventures.com 463 515
firstrowi.eu 463 516
zona-iptv.ru 463 517
hcku.com 463 518
teremok.org.ua 463 519
linguisticsgirl.com 463 520

DOMAINS WITH THE NEAREST RANK BY TLD .com

Domain Rank
laurentluce.com 463 501
datacent.com 463 503
bangladeshyellowpages.com 463 504
emlines.com 463 509
room7.com 463 511
microsoftventures.com 463 515
hcku.com 463 518
linguisticsgirl.com 463 520
86speed.com 463 521
tpapayments.com 463 523
ytrain.com 463 529